sensor_id;sensor_type;location;lat;lon;timestamp;P1;P2;P0
72854;PMS7003;60991;51.278;22.550;2023-05-07T00:00:29;1.67;0.67;0.33
72854;PMS7003;60991;51.278;22.550;2023-05-07T00:01:59;1.00;1.00;1.00
72854;PMS7003;60991;51.278;22.550;2023-05-07T00:03:30;3.00;1.00;1.00
72854;PMS7003;60991;51.278;22.550;2023-05-07T00:05:00;2.00;2.00;1.00
72854;PMS7003;60991;51.278;22.550;2023-05-07T00:06:32;2.00;0.00;0.00
72854;PMS7003;60991;51.278;22.550;2023-05-07T00:08:02;1.75;1.50;1.00
72854;PMS7003;60991;51.278;22.550;2023-05-07T00:09:32;2.75;0.00;0.00
72854;PMS7003;60991;51.278;22.550;2023-05-07T00:11:03;2.00;0.00;0.00
72854;PMS7003;60991;51.278;22.550;2023-05-07T00:12:33;0.50;0.50;0.50
72854;PMS7003;60991;51.278;22.550;2023-05-07T00:14:03;1.75;0.00;0.00
72854;PMS7003;60991;51.278;22.550;2023-05-07T00:15:33;1.00;1.00;0.75
72854;PMS7003;60991;51.278;22.550;2023-05-07T00:17:04;0.00;0.00;0.00
72854;PMS7003;60991;51.278;22.550;2023-05-07T00:18:34;0.33;0.33;0.33
72854;PMS7003;60991;51.278;22.550;2023-05-07T00:20:04;2.00;1.00;1.00
72854;PMS7003;60991;51.278;22.550;2023-05-07T00:21:35;3.75;1.75;1.50
72854;PMS7003;60991;51.278;22.550;2023-05-07T00:23:05;2.00;2.00;2.00
72854;PMS7003;60991;51.278;22.550;2023-05-07T00:24:35;0.33;0.33;0.33
72854;PMS7003;60991;51.278;22.550;2023-05-07T00:26:05;0.67;0.33;0.33
72854;PMS7003;60991;51.278;22.550;2023-05-07T00:27:36;1.00;1.00;0.75
72854;PMS7003;60991;51.278;22.550;2023-05-07T00:29:06;2.33;2.33;1.33
72854;PMS7003;60991;51.278;22.550;2023-05-07T00:30:36;3.00;1.00;1.00
72854;PMS7003;60991;51.278;22.550;2023-05-07T00:32:06;2.00;0.25;0.25
72854;PMS7003;60991;51.278;22.550;2023-05-07T00:33:38;0.00;0.00;0.00
72854;PMS7003;60991;51.278;22.550;2023-05-07T00:35:08;1.00;1.00;1.00
72854;PMS7003;60991;51.278;22.550;2023-05-07T00:36:38;0.75;0.00;0.00
72854;PMS7003;60991;51.278;22.550;2023-05-07T00:38:08;0.67;0.67;0.67
72854;PMS7003;60991;51.278;22.550;2023-05-07T00:39:39;0.00;0.00;0.00
72854;PMS7003;60991;51.278;22.550;2023-05-07T00:41:09;0.25;0.25;0.00
72854;PMS7003;60991;51.278;22.550;2023-05-07T00:42:39;0.00;0.00;0.00
72854;PMS7003;60991;51.278;22.550;2023-05-07T00:44:09;0.00;0.00;0.00
72854;PMS7003;60991;51.278;22.550;2023-05-07T00:45:40;0.50;0.50;0.00
72854;PMS7003;60991;51.278;22.550;2023-05-07T00:47:10;2.00;0.00;0.00
72854;PMS7003;60991;51.278;22.550;2023-05-07T00:48:41;0.75;0.00;0.00
72854;PMS7003;60991;51.278;22.550;2023-05-07T00:50:11;1.00;1.00;1.00
72854;PMS7003;60991;51.278;22.550;2023-05-07T00:51:42;2.00;0.00;0.00
72854;PMS7003;60991;51.278;22.550;2023-05-07T00:53:12;2.00;1.00;0.50
72854;PMS7003;60991;51.278;22.550;2023-05-07T00:54:43;1.00;1.00;0.50
72854;PMS7003;60991;51.278;22.550;2023-05-07T00:56:14;0.25;0.25;0.00
72854;PMS7003;60991;51.278;22.550;2023-05-07T00:57:45;0.00;0.00;0.00
72854;PMS7003;60991;51.278;22.550;2023-05-07T00:59:16;0.25;0.25;0.25
72854;PMS7003;60991;51.278;22.550;2023-05-07T01:00:46;1.00;0.25;0.25
72854;PMS7003;60991;51.278;22.550;2023-05-07T01:02:16;2.00;2.00;1.33
72854;PMS7003;60991;51.278;22.550;2023-05-07T01:03:46;2.00;1.00;1.00
72854;PMS7003;60991;51.278;22.550;2023-05-07T01:05:17;2.00;2.00;1.00
72854;PMS7003;60991;51.278;22.550;2023-05-07T01:06:52;2.50;1.00;0.00
72854;PMS7003;60991;51.278;22.550;2023-05-07T01:08:24;1.00;1.00;0.75
72854;PMS7003;60991;51.278;22.550;2023-05-07T01:09:55;2.00;1.00;1.00
72854;PMS7003;60991;51.278;22.550;2023-05-07T01:11:26;2.00;0.00;0.00
72854;PMS7003;60991;51.278;22.550;2023-05-07T01:12:57;3.50;1.75;1.00
72854;PMS7003;60991;51.278;22.550;2023-05-07T01:14:28;0.00;0.00;0.00
72854;PMS7003;60991;51.278;22.550;2023-05-07T01:15:59;0.00;0.00;0.00
72854;PMS7003;60991;51.278;22.550;2023-05-07T01:17:29;0.00;0.00;0.00
72854;PMS7003;60991;51.278;22.550;2023-05-07T01:19:03;0.00;0.00;0.00
72854;PMS7003;60991;51.278;22.550;2023-05-07T01:20:34;3.25;0.00;0.00
72854;PMS7003;60991;51.278;22.550;2023-05-07T01:22:07;0.00;0.00;0.00
72854;PMS7003;60991;51.278;22.550;2023-05-07T01:23:39;0.00;0.00;0.00
72854;PMS7003;60991;51.278;22.550;2023-05-07T01:25:09;0.00;0.00;0.00
72854;PMS7003;60991;51.278;22.550;2023-05-07T01:26:39;0.00;0.00;0.00
72854;PMS7003;60991;51.278;22.550;2023-05-07T01:28:10;0.75;0.75;0.75
72854;PMS7003;60991;51.278;22.550;2023-05-07T01:29:40;1.00;1.00;0.33
72854;PMS7003;60991;51.278;22.550;2023-05-07T01:31:10;1.00;0.00;0.00
72854;PMS7003;60991;51.278;22.550;2023-05-07T01:32:46;1.00;1.00;0.75
72854;PMS7003;60991;51.278;22.550;2023-05-07T01:34:20;0.00;0.00;0.00
72854;PMS7003;60991;51.278;22.550;2023-05-07T01:35:52;0.25;0.25;0.00
72854;PMS7003;60991;51.278;22.550;2023-05-07T01:37:23;0.00;0.00;0.00
72854;PMS7003;60991;51.278;22.550;2023-05-07T01:38:55;0.00;0.00;0.00
72854;PMS7003;60991;51.278;22.550;2023-05-07T01:40:26;1.00;1.00;1.00
72854;PMS7003;60991;51.278;22.550;2023-05-07T01:41:57;2.00;1.00;1.00
72854;PMS7003;60991;51.278;22.550;2023-05-07T01:43:29;1.00;1.00;0.50
72854;PMS7003;60991;51.278;22.550;2023-05-07T01:45:00;1.00;1.00;0.00
72854;PMS7003;60991;51.278;22.550;2023-05-07T01:46:30;0.00;0.00;0.00
72854;PMS7003;60991;51.278;22.550;2023-05-07T01:48:02;4.25;0.75;0.00
72854;PMS7003;60991;51.278;22.550;2023-05-07T01:49:33;0.25;0.25;0.25
72854;PMS7003;60991;51.278;22.550;2023-05-07T01:51:04;0.25;0.00;0.00
72854;PMS7003;60991;51.278;22.550;2023-05-07T01:52:38;1.00;0.00;0.00
72854;PMS7003;60991;51.278;22.550;2023-05-07T01:54:08;0.00;0.00;0.00
72854;PMS7003;60991;51.278;22.550;2023-05-07T01:55:39;1.00;1.00;0.00
72854;PMS7003;60991;51.278;22.550;2023-05-07T01:57:09;1.00;1.00;0.75
72854;PMS7003;60991;51.278;22.550;2023-05-07T01:58:39;0.67;0.67;0.00
72854;PMS7003;60991;51.278;22.550;2023-05-07T02:00:09;0.00;0.00;0.00
72854;PMS7003;60991;51.278;22.550;2023-05-07T02:01:40;1.25;0.00;0.00
72854;PMS7003;60991;51.278;22.550;2023-05-07T02:03:10;3.00;0.00;0.00
72854;PMS7003;60991;51.278;22.550;2023-05-07T02:04:40;0.00;0.00;0.00
72854;PMS7003;60991;51.278;22.550;2023-05-07T02:06:11;0.33;0.33;0.00
72854;PMS7003;60991;51.278;22.550;2023-05-07T02:07:41;0.33;0.33;0.33
72854;PMS7003;60991;51.278;22.550;2023-05-07T02:09:11;0.25;0.00;0.00
72854;PMS7003;60991;51.278;22.550;2023-05-07T02:10:41;0.75;0.50;0.50
72854;PMS7003;60991;51.278;22.550;2023-05-07T02:12:11;3.00;0.00;0.00
72854;PMS7003;60991;51.278;22.550;2023-05-07T02:13:42;1.00;1.00;0.75
72854;PMS7003;60991;51.278;22.550;2023-05-07T02:15:12;0.00;0.00;0.00
72854;PMS7003;60991;51.278;22.550;2023-05-07T02:16:42;0.00;0.00;0.00
72854;PMS7003;60991;51.278;22.550;2023-05-07T02:18:12;0.00;0.00;0.00
72854;PMS7003;60991;51.278;22.550;2023-05-07T02:19:42;0.00;0.00;0.00
72854;PMS7003;60991;51.278;22.550;2023-05-07T02:21:13;1.00;1.00;0.00
72854;PMS7003;60991;51.278;22.550;2023-05-07T02:22:43;3.00;0.00;0.00
72854;PMS7003;60991;51.278;22.550;2023-05-07T02:24:13;0.00;0.00;0.00
72854;PMS7003;60991;51.278;22.550;2023-05-07T02:25:43;0.00;0.00;0.00
72854;PMS7003;60991;51.278;22.550;2023-05-07T02:27:14;0.25;0.00;0.00
72854;PMS7003;60991;51.278;22.550;2023-05-07T02:28:44;1.00;0.00;0.00
72854;PMS7003;60991;51.278;22.550;2023-05-07T02:30:14;0.33;0.00;0.00
72854;PMS7003;60991;51.278;22.550;2023-05-07T02:31:47;0.00;0.00;0.00
72854;PMS7003;60991;51.278;22.550;2023-05-07T02:33:17;0.00;0.00;0.00
72854;PMS7003;60991;51.278;22.550;2023-05-07T02:34:49;1.00;1.00;1.00
72854;PMS7003;60991;51.278;22.550;2023-05-07T02:36:20;1.50;1.00;1.00
72854;PMS7003;60991;51.278;22.550;2023-05-07T02:37:50;1.67;1.00;0.00
72854;PMS7003;60991;51.278;22.550;2023-05-07T02:39:20;2.00;0.00;0.00
72854;PMS7003;60991;51.278;22.550;2023-05-07T02:40:51;0.00;0.00;0.00
72854;PMS7003;60991;51.278;22.550;2023-05-07T02:42:21;0.00;0.00;0.00
72854;PMS7003;60991;51.278;22.550;2023-05-07T02:43:51;2.75;1.25;1.00
72854;PMS7003;60991;51.278;22.550;2023-05-07T02:45:21;0.00;0.00;0.00
72854;PMS7003;60991;51.278;22.550;2023-05-07T02:46:52;1.00;1.00;1.00
72854;PMS7003;60991;51.278;22.550;2023-05-07T02:48:22;0.00;0.00;0.00
72854;PMS7003;60991;51.278;22.550;2023-05-07T02:49:53;1.50;1.00;0.00
72854;PMS7003;60991;51.278;22.550;2023-05-07T02:51:23;0.00;0.00;0.00
72854;PMS7003;60991;51.278;22.550;2023-05-07T02:52:53;0.33;0.33;0.33
72854;PMS7003;60991;51.278;22.550;2023-05-07T02:54:24;0.00;0.00;0.00
72854;PMS7003;60991;51.278;22.550;2023-05-07T02:55:55;0.33;0.33;0.00
72854;PMS7003;60991;51.278;22.550;2023-05-07T02:57:26;2.00;1.00;1.00
72854;PMS7003;60991;51.278;22.550;2023-05-07T02:58:57;1.00;1.00;1.00
72854;PMS7003;60991;51.278;22.550;2023-05-07T03:00:27;1.33;0.67;0.67
72854;PMS7003;60991;51.278;22.550;2023-05-07T03:01:57;0.00;0.00;0.00
72854;PMS7003;60991;51.278;22.550;2023-05-07T03:03:27;0.67;0.67;0.67
72854;PMS7003;60991;51.278;22.550;2023-05-07T03:04:57;0.00;0.00;0.00
72854;PMS7003;60991;51.278;22.550;2023-05-07T03:06:28;1.67;1.67;1.00
72854;PMS7003;60991;51.278;22.550;2023-05-07T03:07:58;0.00;0.00;0.00
72854;PMS7003;60991;51.278;22.550;2023-05-07T03:09:28;0.67;0.00;0.00
72854;PMS7003;60991;51.278;22.550;2023-05-07T03:10:58;0.00;0.00;0.00
72854;PMS7003;60991;51.278;22.550;2023-05-07T03:12:29;1.00;1.00;0.25
72854;PMS7003;60991;51.278;22.550;2023-05-07T03:13:59;1.50;0.50;0.25
72854;PMS7003;60991;51.278;22.550;2023-05-07T03:15:29;3.00;0.00;0.00
72854;PMS7003;60991;51.278;22.550;2023-05-07T03:16:59;0.25;0.25;0.25
72854;PMS7003;60991;51.278;22.550;2023-05-07T03:18:29;0.00;0.00;0.00
72854;PMS7003;60991;51.278;22.550;2023-05-07T03:20:00;1.00;1.00;1.00
72854;PMS7003;60991;51.278;22.550;2023-05-07T03:21:30;1.00;1.00;1.00
72854;PMS7003;60991;51.278;22.550;2023-05-07T03:23:00;0.75;0.75;0.75
72854;PMS7003;60991;51.278;22.550;2023-05-07T03:24:30;0.00;0.00;0.00
72854;PMS7003;60991;51.278;22.550;2023-05-07T03:26:00;2.67;1.00;1.00
72854;PMS7003;60991;51.278;22.550;2023-05-07T03:27:31;1.33;1.00;1.00
72854;PMS7003;60991;51.278;22.550;2023-05-07T03:29:01;1.00;1.00;1.00
72854;PMS7003;60991;51.278;22.550;2023-05-07T03:30:31;0.50;0.50;0.50
72854;PMS7003;60991;51.278;22.550;2023-05-07T03:32:01;0.75;0.75;0.75
72854;PMS7003;60991;51.278;22.550;2023-05-07T03:33:35;1.75;0.75;0.75
72854;PMS7003;60991;51.278;22.550;2023-05-07T03:35:05;0.00;0.00;0.00
72854;PMS7003;60991;51.278;22.550;2023-05-07T03:36:36;0.00;0.00;0.00
72854;PMS7003;60991;51.278;22.550;2023-05-07T03:38:06;0.00;0.00;0.00
72854;PMS7003;60991;51.278;22.550;2023-05-07T03:39:37;1.00;1.00;1.00
72854;PMS7003;60991;51.278;22.550;2023-05-07T03:41:07;0.25;0.25;0.00
72854;PMS7003;60991;51.278;22.550;2023-05-07T03:42:37;1.00;1.00;0.00
72854;PMS7003;60991;51.278;22.550;2023-05-07T03:44:07;0.00;0.00;0.00
72854;PMS7003;60991;51.278;22.550;2023-05-07T03:45:38;2.00;0.25;0.00
72854;PMS7003;60991;51.278;22.550;2023-05-07T03:47:08;2.00;0.33;0.00
72854;PMS7003;60991;51.278;22.550;2023-05-07T03:48:38;1.67;0.67;0.67
72854;PMS7003;60991;51.278;22.550;2023-05-07T03:50:08;1.00;0.67;0.67
72854;PMS7003;60991;51.278;22.550;2023-05-07T03:51:39;1.50;0.00;0.00
72854;PMS7003;60991;51.278;22.550;2023-05-07T03:53:09;0.00;0.00;0.00
72854;PMS7003;60991;51.278;22.550;2023-05-07T03:54:40;1.00;0.00;0.00
72854;PMS7003;60991;51.278;22.550;2023-05-07T03:56:10;0.00;0.00;0.00
72854;PMS7003;60991;51.278;22.550;2023-05-07T03:57:40;0.75;0.75;0.75
72854;PMS7003;60991;51.278;22.550;2023-05-07T03:59:11;0.00;0.00;0.00
72854;PMS7003;60991;51.278;22.550;2023-05-07T04:00:42;1.00;1.00;1.00
72854;PMS7003;60991;51.278;22.550;2023-05-07T04:02:12;1.00;1.00;1.00
72854;PMS7003;60991;51.278;22.550;2023-05-07T04:03:42;2.00;0.00;0.00
72854;PMS7003;60991;51.278;22.550;2023-05-07T04:05:13;2.33;1.00;1.00
72854;PMS7003;60991;51.278;22.550;2023-05-07T04:06:43;0.00;0.00;0.00
72854;PMS7003;60991;51.278;22.550;2023-05-07T04:08:14;0.33;0.33;0.33
72854;PMS7003;60991;51.278;22.550;2023-05-07T04:09:44;0.67;0.33;0.33
72854;PMS7003;60991;51.278;22.550;2023-05-07T04:11:14;1.00;0.33;0.33
72854;PMS7003;60991;51.278;22.550;2023-05-07T04:12:44;0.67;0.67;0.67
72854;PMS7003;60991;51.278;22.550;2023-05-07T04:14:14;0.00;0.00;0.00
72854;PMS7003;60991;51.278;22.550;2023-05-07T04:15:45;0.00;0.00;0.00
72854;PMS7003;60991;51.278;22.550;2023-05-07T04:17:15;0.00;0.00;0.00
72854;PMS7003;60991;51.278;22.550;2023-05-07T04:18:45;1.00;1.00;1.00
72854;PMS7003;60991;51.278;22.550;2023-05-07T04:20:16;0.00;0.00;0.00
72854;PMS7003;60991;51.278;22.550;2023-05-07T04:21:46;0.50;0.50;0.00
72854;PMS7003;60991;51.278;22.550;2023-05-07T04:23:17;0.67;0.00;0.00
72854;PMS7003;60991;51.278;22.550;2023-05-07T04:24:47;0.75;0.75;0.75
72854;PMS7003;60991;51.278;22.550;2023-05-07T04:26:17;0.00;0.00;0.00
72854;PMS7003;60991;51.278;22.550;2023-05-07T04:27:47;0.67;0.67;0.67
72854;PMS7003;60991;51.278;22.550;2023-05-07T04:29:18;0.00;0.00;0.00
72854;PMS7003;60991;51.278;22.550;2023-05-07T04:30:48;0.75;0.00;0.00
72854;PMS7003;60991;51.278;22.550;2023-05-07T04:32:18;0.00;0.00;0.00
72854;PMS7003;60991;51.278;22.550;2023-05-07T04:33:48;0.00;0.00;0.00
72854;PMS7003;60991;51.278;22.550;2023-05-07T04:35:19;0.25;0.25;0.25
72854;PMS7003;60991;51.278;22.550;2023-05-07T04:36:49;0.75;0.75;0.75
72854;PMS7003;60991;51.278;22.550;2023-05-07T04:38:19;0.00;0.00;0.00
72854;PMS7003;60991;51.278;22.550;2023-05-07T04:39:49;0.00;0.00;0.00
72854;PMS7003;60991;51.278;22.550;2023-05-07T04:41:20;0.00;0.00;0.00
72854;PMS7003;60991;51.278;22.550;2023-05-07T04:42:50;1.33;1.00;1.00
72854;PMS7003;60991;51.278;22.550;2023-05-07T04:44:20;0.00;0.00;0.00
72854;PMS7003;60991;51.278;22.550;2023-05-07T04:45:50;0.00;0.00;0.00
72854;PMS7003;60991;51.278;22.550;2023-05-07T04:47:21;0.00;0.00;0.00
72854;PMS7003;60991;51.278;22.550;2023-05-07T04:48:51;1.00;1.00;1.00
72854;PMS7003;60991;51.278;22.550;2023-05-07T04:50:22;0.00;0.00;0.00
72854;PMS7003;60991;51.278;22.550;2023-05-07T04:51:52;0.00;0.00;0.00
72854;PMS7003;60991;51.278;22.550;2023-05-07T04:53:22;1.00;1.00;1.00
72854;PMS7003;60991;51.278;22.550;2023-05-07T04:54:52;2.00;0.00;0.00
72854;PMS7003;60991;51.278;22.550;2023-05-07T04:56:22;2.25;1.00;1.00
72854;PMS7003;60991;51.278;22.550;2023-05-07T04:57:53;0.75;0.50;0.50
72854;PMS7003;60991;51.278;22.550;2023-05-07T04:59:23;1.00;1.00;1.00
72854;PMS7003;60991;51.278;22.550;2023-05-07T05:00:53;1.00;1.00;1.00
72854;PMS7003;60991;51.278;22.550;2023-05-07T05:02:23;1.33;1.00;0.33
72854;PMS7003;60991;51.278;22.550;2023-05-07T05:03:53;0.33;0.33;0.33
72854;PMS7003;60991;51.278;22.550;2023-05-07T05:05:24;1.00;1.00;1.00
72854;PMS7003;60991;51.278;22.550;2023-05-07T05:06:54;2.00;0.00;0.00
72854;PMS7003;60991;51.278;22.550;2023-05-07T05:08:24;1.00;1.00;1.00
72854;PMS7003;60991;51.278;22.550;2023-05-07T05:09:54;1.00;1.00;1.00
72854;PMS7003;60991;51.278;22.550;2023-05-07T05:11:25;0.50;0.50;0.50
72854;PMS7003;60991;51.278;22.550;2023-05-07T05:12:55;1.00;1.00;1.00
72854;PMS7003;60991;51.278;22.550;2023-05-07T05:14:25;0.00;0.00;0.00
72854;PMS7003;60991;51.278;22.550;2023-05-07T05:15:55;1.25;1.25;1.25
72854;PMS7003;60991;51.278;22.550;2023-05-07T05:17:25;0.67;0.67;0.67
72854;PMS7003;60991;51.278;22.550;2023-05-07T05:18:56;1.33;1.33;1.00
72854;PMS7003;60991;51.278;22.550;2023-05-07T05:20:26;1.00;1.00;1.00
72854;PMS7003;60991;51.278;22.550;2023-05-07T05:21:56;0.25;0.25;0.25
72854;PMS7003;60991;51.278;22.550;2023-05-07T05:23:26;1.00;1.00;1.00
72854;PMS7003;60991;51.278;22.550;2023-05-07T05:24:56;1.00;1.00;1.00
72854;PMS7003;60991;51.278;22.550;2023-05-07T05:26:27;1.00;0.75;0.75
72854;PMS7003;60991;51.278;22.550;2023-05-07T05:27:57;1.00;1.00;1.00
72854;PMS7003;60991;51.278;22.550;2023-05-07T05:29:27;1.67;1.67;1.33
72854;PMS7003;60991;51.278;22.550;2023-05-07T05:30:58;3.00;1.50;1.50
72854;PMS7003;60991;51.278;22.550;2023-05-07T05:32:28;1.67;1.67;1.00
72854;PMS7003;60991;51.278;22.550;2023-05-07T05:33:58;1.00;1.00;0.33
72854;PMS7003;60991;51.278;22.550;2023-05-07T05:35:29;5.00;1.00;0.33
72854;PMS7003;60991;51.278;22.550;2023-05-07T05:36:59;3.00;1.75;1.00
72854;PMS7003;60991;51.278;22.550;2023-05-07T05:38:29;1.75;1.75;1.25
72854;PMS7003;60991;51.278;22.550;2023-05-07T05:39:59;1.00;1.00;1.00
72854;PMS7003;60991;51.278;22.550;2023-05-07T05:41:30;0.25;0.25;0.25
72854;PMS7003;60991;51.278;22.550;2023-05-07T05:43:00;1.00;1.00;1.00
72854;PMS7003;60991;51.278;22.550;2023-05-07T05:44:30;1.33;0.00;0.00
72854;PMS7003;60991;51.278;22.550;2023-05-07T05:46:00;2.00;1.75;1.75
72854;PMS7003;60991;51.278;22.550;2023-05-07T05:47:31;2.75;2.75;2.00
72854;PMS7003;60991;51.278;22.550;2023-05-07T05:49:01;1.00;1.00;1.00
72854;PMS7003;60991;51.278;22.550;2023-05-07T05:50:31;1.25;1.25;1.00
72854;PMS7003;60991;51.278;22.550;2023-05-07T05:52:01;2.00;1.50;1.00
72854;PMS7003;60991;51.278;22.550;2023-05-07T05:53:32;2.25;1.00;1.00
72854;PMS7003;60991;51.278;22.550;2023-05-07T05:55:02;2.00;2.00;2.00
72854;PMS7003;60991;51.278;22.550;2023-05-07T05:56:33;1.00;1.00;1.00
72854;PMS7003;60991;51.278;22.550;2023-05-07T05:58:03;1.00;1.00;1.00
72854;PMS7003;60991;51.278;22.550;2023-05-07T05:59:33;3.00;2.00;2.00
72854;PMS7003;60991;51.278;22.550;2023-05-07T06:01:04;6.00;2.00;2.00
72854;PMS7003;60991;51.278;22.550;2023-05-07T06:02:34;1.00;1.00;1.00
72854;PMS7003;60991;51.278;22.550;2023-05-07T06:04:04;2.00;2.00;2.00
72854;PMS7003;60991;51.278;22.550;2023-05-07T06:05:35;2.00;1.00;1.00
72854;PMS7003;60991;51.278;22.550;2023-05-07T06:07:05;1.00;1.00;1.00
72854;PMS7003;60991;51.278;22.550;2023-05-07T06:08:35;3.00;1.67;1.00
72854;PMS7003;60991;51.278;22.550;2023-05-07T06:10:05;2.25;2.00;2.00
72854;PMS7003;60991;51.278;22.550;2023-05-07T06:11:36;1.00;1.00;1.00
72854;PMS7003;60991;51.278;22.550;2023-05-07T06:13:07;2.00;2.00;2.00
72854;PMS7003;60991;51.278;22.550;2023-05-07T06:14:37;1.00;1.00;1.00
72854;PMS7003;60991;51.278;22.550;2023-05-07T06:16:07;2.67;2.00;2.00
72854;PMS7003;60991;51.278;22.550;2023-05-07T06:17:37;2.67;2.67;2.00
72854;PMS7003;60991;51.278;22.550;2023-05-07T06:19:08;3.00;3.00;2.33
72854;PMS7003;60991;51.278;22.550;2023-05-07T06:20:38;3.00;2.00;2.00
72854;PMS7003;60991;51.278;22.550;2023-05-07T06:22:08;3.00;2.00;2.00
72854;PMS7003;60991;51.278;22.550;2023-05-07T06:23:38;3.50;1.75;1.75
72854;PMS7003;60991;51.278;22.550;2023-05-07T06:25:09;2.00;2.00;2.00
72854;PMS7003;60991;51.278;22.550;2023-05-07T06:26:39;5.50;2.00;1.00
72854;PMS7003;60991;51.278;22.550;2023-05-07T06:28:09;2.33;2.00;2.00
72854;PMS7003;60991;51.278;22.550;2023-05-07T06:29:39;2.67;2.00;2.00
72854;PMS7003;60991;51.278;22.550;2023-05-07T06:31:16;3.00;2.00;2.00
72854;PMS7003;60991;51.278;22.550;2023-05-07T06:32:48;1.75;1.75;1.75
72854;PMS7003;60991;51.278;22.550;2023-05-07T06:34:18;1.00;1.00;1.00
72854;PMS7003;60991;51.278;22.550;2023-05-07T06:35:48;6.00;2.00;2.00
72854;PMS7003;60991;51.278;22.550;2023-05-07T06:37:19;2.67;2.00;2.00
72854;PMS7003;60991;51.278;22.550;2023-05-07T06:38:49;2.33;1.67;1.00
72854;PMS7003;60991;51.278;22.550;2023-05-07T06:40:19;2.00;2.00;2.00
72854;PMS7003;60991;51.278;22.550;2023-05-07T06:41:49;5.00;2.00;2.00
72854;PMS7003;60991;51.278;22.550;2023-05-07T06:43:19;2.00;1.75;1.75
72854;PMS7003;60991;51.278;22.550;2023-05-07T06:44:50;1.00;1.00;1.00
72854;PMS7003;60991;51.278;22.550;2023-05-07T06:46:20;2.50;2.50;2.50
72854;PMS7003;60991;51.278;22.550;2023-05-07T06:47:50;2.00;2.00;2.00
72854;PMS7003;60991;51.278;22.550;2023-05-07T06:49:20;3.00;1.25;1.25
72854;PMS7003;60991;51.278;22.550;2023-05-07T06:50:50;2.00;2.00;2.00
72854;PMS7003;60991;51.278;22.550;2023-05-07T06:52:21;3.00;2.00;2.00
72854;PMS7003;60991;51.278;22.550;2023-05-07T06:53:51;2.50;2.50;2.25
72854;PMS7003;60991;51.278;22.550;2023-05-07T06:55:21;2.67;2.67;2.33
72854;PMS7003;60991;51.278;22.550;2023-05-07T06:56:51;3.00;3.00;2.33
72854;PMS7003;60991;51.278;22.550;2023-05-07T06:58:22;5.00;3.00;3.00
72854;PMS7003;60991;51.278;22.550;2023-05-07T06:59:52;4.50;4.50;3.00
72854;PMS7003;60991;51.278;22.550;2023-05-07T07:01:22;5.25;3.00;3.00
72854;PMS7003;60991;51.278;22.550;2023-05-07T07:02:53;3.00;3.00;3.00
72854;PMS7003;60991;51.278;22.550;2023-05-07T07:04:24;3.00;1.75;1.75
72854;PMS7003;60991;51.278;22.550;2023-05-07T07:05:54;4.33;2.67;2.67
72854;PMS7003;60991;51.278;22.550;2023-05-07T07:07:27;2.00;2.00;2.00
72854;PMS7003;60991;51.278;22.550;2023-05-07T07:08:58;2.00;2.00;2.00
72854;PMS7003;60991;51.278;22.550;2023-05-07T07:10:29;4.50;3.00;2.50
72854;PMS7003;60991;51.278;22.550;2023-05-07T07:11:59;2.33;2.33;2.33
72854;PMS7003;60991;51.278;22.550;2023-05-07T07:13:29;2.00;2.00;2.00
72854;PMS7003;60991;51.278;22.550;2023-05-07T07:15:00;3.00;3.00;3.00
72854;PMS7003;60991;51.278;22.550;2023-05-07T07:16:30;3.00;3.00;3.00
72854;PMS7003;60991;51.278;22.550;2023-05-07T07:18:00;3.67;3.67;3.00
72854;PMS7003;60991;51.278;22.550;2023-05-07T07:19:30;5.00;3.00;2.00
72854;PMS7003;60991;51.278;22.550;2023-05-07T07:21:00;5.00;3.67;3.00
72854;PMS7003;60991;51.278;22.550;2023-05-07T07:22:31;5.50;3.00;2.25
72854;PMS7003;60991;51.278;22.550;2023-05-07T07:24:01;2.00;2.00;2.00
72854;PMS7003;60991;51.278;22.550;2023-05-07T07:25:31;3.00;3.00;3.00
72854;PMS7003;60991;51.278;22.550;2023-05-07T07:27:01;3.00;2.00;2.00
72854;PMS7003;60991;51.278;22.550;2023-05-07T07:28:32;5.25;3.50;2.75
72854;PMS7003;60991;51.278;22.550;2023-05-07T07:30:02;2.75;2.75;2.75
72854;PMS7003;60991;51.278;22.550;2023-05-07T07:31:32;5.00;2.75;2.75
72854;PMS7003;60991;51.278;22.550;2023-05-07T07:33:03;2.67;1.00;1.00
72854;PMS7003;60991;51.278;22.550;2023-05-07T07:34:33;3.00;3.00;3.00
72854;PMS7003;60991;51.278;22.550;2023-05-07T07:36:04;2.00;2.00;2.00
72854;PMS7003;60991;51.278;22.550;2023-05-07T07:37:35;2.50;2.50;1.50
72854;PMS7003;60991;51.278;22.550;2023-05-07T07:39:05;2.00;2.00;2.00
72854;PMS7003;60991;51.278;22.550;2023-05-07T07:40:36;6.50;5.00;4.50
72854;PMS7003;60991;51.278;22.550;2023-05-07T07:42:06;2.75;2.75;2.00
72854;PMS7003;60991;51.278;22.550;2023-05-07T07:43:36;10.00;3.00;2.75
72854;PMS7003;60991;51.278;22.550;2023-05-07T07:45:06;3.33;2.00;2.00
72854;PMS7003;60991;51.278;22.550;2023-05-07T07:46:37;1.00;1.00;1.00
72854;PMS7003;60991;51.278;22.550;2023-05-07T07:48:07;5.67;1.33;1.33
72854;PMS7003;60991;51.278;22.550;2023-05-07T07:49:38;5.00;3.00;2.00
72854;PMS7003;60991;51.278;22.550;2023-05-07T07:51:08;6.00;2.00;2.00
72854;PMS7003;60991;51.278;22.550;2023-05-07T07:52:38;4.33;2.00;1.67
72854;PMS7003;60991;51.278;22.550;2023-05-07T07:54:08;1.25;1.00;1.00
72854;PMS7003;60991;51.278;22.550;2023-05-07T07:55:39;3.50;2.50;2.00
72854;PMS7003;60991;51.278;22.550;2023-05-07T07:57:09;3.50;3.50;3.00
72854;PMS7003;60991;51.278;22.550;2023-05-07T07:58:39;2.00;2.00;2.00
72854;PMS7003;60991;51.278;22.550;2023-05-07T08:00:10;3.67;3.67;2.00
72854;PMS7003;60991;51.278;22.550;2023-05-07T08:01:40;1.75;1.25;0.75
72854;PMS7003;60991;51.278;22.550;2023-05-07T08:03:11;2.00;2.00;2.00
72854;PMS7003;60991;51.278;22.550;2023-05-07T08:04:41;2.25;2.25;2.25
72854;PMS7003;60991;51.278;22.550;2023-05-07T08:06:11;3.00;3.00;2.33
72854;PMS7003;60991;51.278;22.550;2023-05-07T08:07:41;2.33;2.33;2.33
72854;PMS7003;60991;51.278;22.550;2023-05-07T08:09:12;6.00;3.00;2.25
72854;PMS7003;60991;51.278;22.550;2023-05-07T08:10:42;3.00;3.00;3.00
72854;PMS7003;60991;51.278;22.550;2023-05-07T08:12:12;2.25;2.25;2.25
72854;PMS7003;60991;51.278;22.550;2023-05-07T08:13:42;4.00;2.00;2.00
72854;PMS7003;60991;51.278;22.550;2023-05-07T08:15:13;3.00;3.00;2.50
72854;PMS7003;60991;51.278;22.550;2023-05-07T08:16:43;2.00;2.00;2.00
72854;PMS7003;60991;51.278;22.550;2023-05-07T08:18:13;4.50;4.50;2.75
72854;PMS7003;60991;51.278;22.550;2023-05-07T08:19:43;2.33;2.33;2.00
72854;PMS7003;60991;51.278;22.550;2023-05-07T08:21:14;6.25;2.25;2.00
72854;PMS7003;60991;51.278;22.550;2023-05-07T08:22:44;4.25;2.00;2.00
72854;PMS7003;60991;51.278;22.550;2023-05-07T08:24:14;2.00;2.00;2.00
72854;PMS7003;60991;51.278;22.550;2023-05-07T08:25:45;6.75;4.50;3.00
72854;PMS7003;60991;51.278;22.550;2023-05-07T08:27:15;8.00;2.00;2.00
72854;PMS7003;60991;51.278;22.550;2023-05-07T08:28:45;5.75;3.00;3.00
72854;PMS7003;60991;51.278;22.550;2023-05-07T08:30:16;2.00;2.00;1.33
72854;PMS7003;60991;51.278;22.550;2023-05-07T08:31:46;7.75;7.25;5.00
72854;PMS7003;60991;51.278;22.550;2023-05-07T08:33:16;5.00;2.33;2.00
72854;PMS7003;60991;51.278;22.550;2023-05-07T08:34:47;2.00;2.00;2.00
72854;PMS7003;60991;51.278;22.550;2023-05-07T08:36:17;4.50;4.50;3.00
72854;PMS7003;60991;51.278;22.550;2023-05-07T08:37:47;5.67;5.00;3.67
72854;PMS7003;60991;51.278;22.550;2023-05-07T08:39:18;3.67;2.67;2.00
72854;PMS7003;60991;51.278;22.550;2023-05-07T08:40:48;4.00;4.00;2.75